KWVI/WVI METAR and TAF weather

Enter ICAO airport designator
Station Type Date Time Source
KWVI METAR 2019/04/20 17:53 UTC NOAA

KWVI 201753Z AUTO 00000KT 10SM OVC017 15/11 A3000 RMK AO2 SLP158 T01500111 10150 20111 53009


Station Type Date Time Source
KWVI Decoded METAR 2019/04/20 17:53 UTC NOAA

WATSONVILLE MUNICIPAL AIRPORT , CA, United States (KWVI) 36-56N 121-47W 43M
Apr 20, 2019 - 01:53 PM EDT / 2019.04.20 1753 UTC
Wind: Calm:0
Visibility: 10 mile(s):0
Sky conditions: overcast
Temperature: 59.0 F (15.0 C)
Dew Point: 52.0 F (11.1 C)
Relative Humidity: 77%
Pressure (altimeter): 30 in. Hg (1015 hPa)
Pressure tendency: 0.03 inches (0.9 hPa) higher than three hours ago
ob: KWVI 201753Z AUTO 00000KT 10SM OVC017 15/11 A3000 RMK AO2 SLP158 T01500111 10150 20111 53009
cycle: 18

Station Type Date Time Source
KWVI TAF UTC NOAA

Error!

Example: see airport list